Portada
METAR-TAF:

METAR-TAF

Aeropuertos :

Aeropuerto de Svalbard

Longyearbyen, Noruega

latitud: 78-15N, longitud: 015-28E, altitud: 2 m

Observación

El informe se hizo hace 39 minutos, a las 14:20 UTC
Viento 8 kt del este-sureste
Temperatura -7°C
Humedad 73%
Presión 1020 hPa
Visibilidad 10 km o más
Escasas nubes a una altura de 1600 ft
Cielo nuboso a una altura de 2500 ft
poca nieve

METAR: ENSB 241420Z 11008KT 9999 -SN FEW016 BKN025 M07/M11 Q1020 RMK WIND 1400FT 24006KT

Hora: 16:59 (14:59 UTC)

Pronóstico

Pronóstico válido del 24 a las 12 UTC al 25 a las 12 UTC
Viento 8 kt del este-sureste
Visibilidad 10 km o más
Escasas nubes a una altura de 1500 ft
Nubes dispersas a una altura de 5000 ft

TAF: ENSB 2412/2512 12008KT 9999 FEW015 SCT050

Observaciones y pronósticos meteorológicos de más de 4000 aeropuertos (mensajes METAR y TAF).

Los puntos amarillos y rojos representan las estaciones disponibles.

Ponga el ratón en el punto deseado para ver el nombre de la estación.

Haga clic para ver las observaciones y los pronósticos meteorológicos.

Para cambiar el mapa : haga clic en los botones verdes con una cruz de color negro para hacer un zoom, en el botón verde con un guión para alejar o en las flechas verdes para mapas adyacentes.


METAR-TAF: